sensor_id;sensor_type;location;lat;lon;timestamp;P1;durP1;ratioP1;P2;durP2;ratioP2
4812;SDS011;2420;51.202;8.698;2022-11-04T00:01:30;3.17;;;1.95;;
4812;SDS011;2420;51.202;8.698;2022-11-04T00:03:57;1.92;;;1.73;;
4812;SDS011;2420;51.202;8.698;2022-11-04T00:06:22;2.22;;;1.65;;
4812;SDS011;2420;51.202;8.698;2022-11-04T00:08:49;1.60;;;1.50;;
4812;SDS011;2420;51.202;8.698;2022-11-04T00:11:16;2.38;;;1.75;;
4812;SDS011;2420;51.202;8.698;2022-11-04T00:14:00;2.13;;;1.80;;
4812;SDS011;2420;51.202;8.698;2022-11-04T00:16:26;2.08;;;1.42;;
4812;SDS011;2420;51.202;8.698;2022-11-04T00:19:11;1.60;;;1.50;;
4812;SDS011;2420;51.202;8.698;2022-11-04T00:21:36;4.90;;;1.70;;
4812;SDS011;2420;51.202;8.698;2022-11-04T00:24:20;1.95;;;1.42;;
4812;SDS011;2420;51.202;8.698;2022-11-04T00:27:04;2.70;;;1.77;;
4812;SDS011;2420;51.202;8.698;2022-11-04T00:29:50;2.58;;;1.60;;
4812;SDS011;2420;51.202;8.698;2022-11-04T00:32:15;2.10;;;1.55;;
4812;SDS011;2420;51.202;8.698;2022-11-04T00:35:00;1.70;;;1.33;;
4812;SDS011;2420;51.202;8.698;2022-11-04T00:37:25;2.00;;;1.70;;
4812;SDS011;2420;51.202;8.698;2022-11-04T00:39:51;1.70;;;1.60;;
4812;SDS011;2420;51.202;8.698;2022-11-04T00:42:16;1.60;;;1.45;;
4812;SDS011;2420;51.202;8.698;2022-11-04T00:44:42;2.13;;;1.50;;
4812;SDS011;2420;51.202;8.698;2022-11-04T00:47:07;2.00;;;1.60;;
4812;SDS011;2420;51.202;8.698;2022-11-04T00:49:33;2.80;;;1.63;;
4812;SDS011;2420;51.202;8.698;2022-11-04T00:51:58;1.52;;;1.40;;
4812;SDS011;2420;51.202;8.698;2022-11-04T00:54:24;1.90;;;1.27;;
4812;SDS011;2420;51.202;8.698;2022-11-04T00:56:49;1.70;;;1.40;;
4812;SDS011;2420;51.202;8.698;2022-11-04T00:59:15;1.48;;;1.20;;
4812;SDS011;2420;51.202;8.698;2022-11-04T01:01:40;2.53;;;1.50;;
4812;SDS011;2420;51.202;8.698;2022-11-04T01:04:06;1.77;;;1.50;;
4812;SDS011;2420;51.202;8.698;2022-11-04T01:06:32;1.60;;;1.20;;
4812;SDS011;2420;51.202;8.698;2022-11-04T01:08:59;1.15;;;1.05;;
4812;SDS011;2420;51.202;8.698;2022-11-04T01:11:30;3.10;;;1.20;;
4812;SDS011;2420;51.202;8.698;2022-11-04T01:13:56;1.25;;;1.13;;
4812;SDS011;2420;51.202;8.698;2022-11-04T01:16:22;1.30;;;1.20;;
4812;SDS011;2420;51.202;8.698;2022-11-04T01:18:49;1.92;;;1.10;;
4812;SDS011;2420;51.202;8.698;2022-11-04T01:21:15;1.60;;;1.30;;
4812;SDS011;2420;51.202;8.698;2022-11-04T01:23:42;1.25;;;1.15;;
4812;SDS011;2420;51.202;8.698;2022-11-04T01:26:14;1.30;;;1.10;;
4812;SDS011;2420;51.202;8.698;2022-11-04T01:28:41;1.17;;;1.02;;
4812;SDS011;2420;51.202;8.698;2022-11-04T01:31:07;1.30;;;1.10;;
4812;SDS011;2420;51.202;8.698;2022-11-04T01:33:34;1.52;;;1.30;;
4812;SDS011;2420;51.202;8.698;2022-11-04T01:36:01;1.38;;;1.23;;
4812;SDS011;2420;51.202;8.698;2022-11-04T01:38:27;2.42;;;1.20;;
4812;SDS011;2420;51.202;8.698;2022-11-04T01:40:53;1.50;;;1.20;;
4812;SDS011;2420;51.202;8.698;2022-11-04T01:43:19;1.50;;;1.40;;
4812;SDS011;2420;51.202;8.698;2022-11-04T01:45:47;2.55;;;1.40;;
4812;SDS011;2420;51.202;8.698;2022-11-04T01:48:25;1.38;;;1.20;;
4812;SDS011;2420;51.202;8.698;2022-11-04T01:50:55;2.17;;;1.15;;
4812;SDS011;2420;51.202;8.698;2022-11-04T01:53:24;3.83;;;1.30;;
4812;SDS011;2420;51.202;8.698;2022-11-04T01:55:58;1.48;;;1.30;;
4812;SDS011;2420;51.202;8.698;2022-11-04T01:58:27;2.25;;;1.45;;
4812;SDS011;2420;51.202;8.698;2022-11-04T02:00:55;1.48;;;1.17;;
4812;SDS011;2420;51.202;8.698;2022-11-04T02:03:25;1.20;;;1.10;;
4812;SDS011;2420;51.202;8.698;2022-11-04T02:06:19;1.55;;;1.45;;
4812;SDS011;2420;51.202;8.698;2022-11-04T02:08:46;1.50;;;1.30;;
4812;SDS011;2420;51.202;8.698;2022-11-04T02:11:12;1.88;;;1.30;;
4812;SDS011;2420;51.202;8.698;2022-11-04T02:13:57;1.55;;;1.42;;
4812;SDS011;2420;51.202;8.698;2022-11-04T02:16:36;2.75;;;1.70;;
4812;SDS011;2420;51.202;8.698;2022-11-04T02:19:24;5.63;;;1.60;;
4812;SDS011;2420;51.202;8.698;2022-11-04T02:27:31;2.13;;;1.63;;
4812;SDS011;2420;51.202;8.698;2022-11-04T02:38:01;2.25;;;1.90;;
4812;SDS011;2420;51.202;8.698;2022-11-04T02:43:26;4.78;;;2.13;;
4812;SDS011;2420;51.202;8.698;2022-11-04T02:46:31;2.20;;;2.00;;
4812;SDS011;2420;51.202;8.698;2022-11-04T02:49:06;1.83;;;1.70;;
4812;SDS011;2420;51.202;8.698;2022-11-04T02:51:44;2.33;;;2.10;;
4812;SDS011;2420;51.202;8.698;2022-11-04T02:54:32;2.83;;;1.90;;
4812;SDS011;2420;51.202;8.698;2022-11-04T02:57:14;2.30;;;2.10;;
4812;SDS011;2420;51.202;8.698;2022-11-04T02:59:55;4.38;;;2.13;;
4812;SDS011;2420;51.202;8.698;2022-11-04T03:02:29;2.85;;;2.28;;
4812;SDS011;2420;51.202;8.698;2022-11-04T03:04:59;3.55;;;2.50;;
4812;SDS011;2420;51.202;8.698;2022-11-04T03:07:28;4.05;;;2.35;;
4812;SDS011;2420;51.202;8.698;2022-11-04T03:10:00;3.35;;;2.30;;
4812;SDS011;2420;51.202;8.698;2022-11-04T03:12:31;3.00;;;2.47;;
4812;SDS011;2420;51.202;8.698;2022-11-04T03:15:06;3.05;;;2.22;;
4812;SDS011;2420;51.202;8.698;2022-11-04T03:17:58;2.95;;;2.60;;
4812;SDS011;2420;51.202;8.698;2022-11-04T03:20:34;2.83;;;2.40;;
4812;SDS011;2420;51.202;8.698;2022-11-04T03:23:02;2.83;;;2.40;;
4812;SDS011;2420;51.202;8.698;2022-11-04T03:25:31;4.15;;;2.72;;
4812;SDS011;2420;51.202;8.698;2022-11-04T03:28:02;3.00;;;2.70;;
4812;SDS011;2420;51.202;8.698;2022-11-04T03:30:45;3.22;;;2.92;;
4812;SDS011;2420;51.202;8.698;2022-11-04T03:36:05;3.13;;;2.75;;
4812;SDS011;2420;51.202;8.698;2022-11-04T03:38:32;2.70;;;2.42;;
4812;SDS011;2420;51.202;8.698;2022-11-04T03:40:59;5.00;;;2.55;;
4812;SDS011;2420;51.202;8.698;2022-11-04T03:43:27;2.60;;;2.40;;
4812;SDS011;2420;51.202;8.698;2022-11-04T03:45:53;3.03;;;2.10;;
4812;SDS011;2420;51.202;8.698;2022-11-04T03:48:20;2.80;;;2.05;;
4812;SDS011;2420;51.202;8.698;2022-11-04T03:50:47;2.30;;;1.77;;
4812;SDS011;2420;51.202;8.698;2022-11-04T03:53:20;2.20;;;1.80;;
4812;SDS011;2420;51.202;8.698;2022-11-04T03:58:52;3.58;;;1.80;;
4812;SDS011;2420;51.202;8.698;2022-11-04T04:06:52;2.30;;;1.80;;
4812;SDS011;2420;51.202;8.698;2022-11-04T04:09:23;2.70;;;1.77;;
4812;SDS011;2420;51.202;8.698;2022-11-04T04:17:04;3.90;;;1.70;;
4812;SDS011;2420;51.202;8.698;2022-11-04T04:19:38;3.20;;;1.67;;
4812;SDS011;2420;51.202;8.698;2022-11-04T04:22:08;2.13;;;1.42;;
4812;SDS011;2420;51.202;8.698;2022-11-04T04:24:44;4.38;;;1.65;;
4812;SDS011;2420;51.202;8.698;2022-11-04T04:27:31;9.90;;;2.63;;
4812;SDS011;2420;51.202;8.698;2022-11-04T04:29:59;5.75;;;1.60;;
4812;SDS011;2420;51.202;8.698;2022-11-04T04:32:41;2.15;;;1.15;;
4812;SDS011;2420;51.202;8.698;2022-11-04T04:35:07;3.75;;;1.50;;
4812;SDS011;2420;51.202;8.698;2022-11-04T04:37:53;6.35;;;1.85;;
4812;SDS011;2420;51.202;8.698;2022-11-04T04:40:42;5.22;;;1.50;;
4812;SDS011;2420;51.202;8.698;2022-11-04T04:43:29;3.60;;;1.42;;
4812;SDS011;2420;51.202;8.698;2022-11-04T04:46:13;1.73;;;1.30;;
4812;SDS011;2420;51.202;8.698;2022-11-04T04:48:39;4.18;;;1.30;;
4812;SDS011;2420;51.202;8.698;2022-11-04T04:51:05;1.42;;;1.08;;
4812;SDS011;2420;51.202;8.698;2022-11-04T04:53:30;1.85;;;1.10;;
4812;SDS011;2420;51.202;8.698;2022-11-04T04:55:56;4.20;;;1.33;;
4812;SDS011;2420;51.202;8.698;2022-11-04T04:58:21;1.85;;;1.30;;
4812;SDS011;2420;51.202;8.698;2022-11-04T05:00:47;1.70;;;1.17;;
4812;SDS011;2420;51.202;8.698;2022-11-04T05:03:12;2.13;;;1.23;;
4812;SDS011;2420;51.202;8.698;2022-11-04T05:05:38;4.40;;;1.63;;
4812;SDS011;2420;51.202;8.698;2022-11-04T05:08:04;4.40;;;1.33;;
4812;SDS011;2420;51.202;8.698;2022-11-04T05:10:30;1.48;;;1.15;;
4812;SDS011;2420;51.202;8.698;2022-11-04T05:12:57;3.10;;;1.27;;
4812;SDS011;2420;51.202;8.698;2022-11-04T05:15:44;3.10;;;1.10;;
4812;SDS011;2420;51.202;8.698;2022-11-04T05:18:10;4.45;;;1.35;;
4812;SDS011;2420;51.202;8.698;2022-11-04T05:20:35;3.10;;;1.48;;
4812;SDS011;2420;51.202;8.698;2022-11-04T05:23:04;4.32;;;1.20;;
4812;SDS011;2420;51.202;8.698;2022-11-04T05:25:30;2.33;;;1.13;;
4812;SDS011;2420;51.202;8.698;2022-11-04T05:27:58;3.40;;;1.25;;
4812;SDS011;2420;51.202;8.698;2022-11-04T05:30:24;1.75;;;1.23;;
4812;SDS011;2420;51.202;8.698;2022-11-04T05:32:50;4.55;;;1.40;;
4812;SDS011;2420;51.202;8.698;2022-11-04T05:35:15;4.32;;;1.30;;
4812;SDS011;2420;51.202;8.698;2022-11-04T05:37:41;2.55;;;1.10;;
4812;SDS011;2420;51.202;8.698;2022-11-04T05:40:06;2.00;;;1.20;;
4812;SDS011;2420;51.202;8.698;2022-11-04T05:42:32;3.05;;;1.23;;
4812;SDS011;2420;51.202;8.698;2022-11-04T05:45:00;3.50;;;1.40;;
4812;SDS011;2420;51.202;8.698;2022-11-04T05:47:26;4.40;;;1.20;;
4812;SDS011;2420;51.202;8.698;2022-11-04T05:49:52;6.55;;;1.40;;
4812;SDS011;2420;51.202;8.698;2022-11-04T05:52:17;3.92;;;1.48;;
4812;SDS011;2420;51.202;8.698;2022-11-04T05:54:43;3.53;;;1.70;;
4812;SDS011;2420;51.202;8.698;2022-11-04T05:57:08;3.80;;;1.42;;
4812;SDS011;2420;51.202;8.698;2022-11-04T05:59:35;3.38;;;1.60;;
4812;SDS011;2420;51.202;8.698;2022-11-04T06:02:01;3.17;;;1.30;;
4812;SDS011;2420;51.202;8.698;2022-11-04T06:04:27;7.93;;;1.50;;
4812;SDS011;2420;51.202;8.698;2022-11-04T06:06:52;4.93;;;1.30;;
4812;SDS011;2420;51.202;8.698;2022-11-04T06:09:18;2.75;;;1.50;;
4812;SDS011;2420;51.202;8.698;2022-11-04T06:11:43;3.33;;;1.60;;
4812;SDS011;2420;51.202;8.698;2022-11-04T06:14:09;3.30;;;1.70;;
4812;SDS011;2420;51.202;8.698;2022-11-04T06:16:35;4.78;;;1.73;;
4812;SDS011;2420;51.202;8.698;2022-11-04T06:19:01;6.07;;;1.90;;
4812;SDS011;2420;51.202;8.698;2022-11-04T06:21:30;4.90;;;1.75;;
4812;SDS011;2420;51.202;8.698;2022-11-04T06:23:57;4.82;;;1.60;;
4812;SDS011;2420;51.202;8.698;2022-11-04T06:26:24;1.83;;;1.42;;
4812;SDS011;2420;51.202;8.698;2022-11-04T06:28:51;3.88;;;1.67;;
4812;SDS011;2420;51.202;8.698;2022-11-04T06:31:17;2.40;;;1.70;;
4812;SDS011;2420;51.202;8.698;2022-11-04T06:33:43;3.97;;;1.95;;
4812;SDS011;2420;51.202;8.698;2022-11-04T06:36:10;3.60;;;1.70;;
4812;SDS011;2420;51.202;8.698;2022-11-04T06:38:38;4.30;;;1.90;;
4812;SDS011;2420;51.202;8.698;2022-11-04T06:41:05;4.60;;;1.65;;
4812;SDS011;2420;51.202;8.698;2022-11-04T06:43:32;4.03;;;1.67;;
4812;SDS011;2420;51.202;8.698;2022-11-04T06:45:59;3.35;;;1.85;;
4812;SDS011;2420;51.202;8.698;2022-11-04T06:48:25;4.43;;;1.60;;
4812;SDS011;2420;51.202;8.698;2022-11-04T06:50:53;2.53;;;1.45;;
4812;SDS011;2420;51.202;8.698;2022-11-04T06:53:19;5.25;;;1.60;;
4812;SDS011;2420;51.202;8.698;2022-11-04T06:55:44;3.17;;;1.40;;
4812;SDS011;2420;51.202;8.698;2022-11-04T06:58:10;5.53;;;1.60;;
4812;SDS011;2420;51.202;8.698;2022-11-04T07:00:36;4.97;;;1.35;;
4812;SDS011;2420;51.202;8.698;2022-11-04T07:03:01;4.32;;;1.83;;
4812;SDS011;2420;51.202;8.698;2022-11-04T07:05:27;4.32;;;1.70;;
4812;SDS011;2420;51.202;8.698;2022-11-04T07:07:53;6.18;;;1.90;;
4812;SDS011;2420;51.202;8.698;2022-11-04T07:10:18;4.70;;;1.73;;
4812;SDS011;2420;51.202;8.698;2022-11-04T07:12:44;2.67;;;1.73;;
4812;SDS011;2420;51.202;8.698;2022-11-04T07:15:10;2.25;;;1.63;;
4812;SDS011;2420;51.202;8.698;2022-11-04T07:17:35;5.22;;;1.85;;
4812;SDS011;2420;51.202;8.698;2022-11-04T07:20:01;3.70;;;1.75;;
4812;SDS011;2420;51.202;8.698;2022-11-04T07:22:29;4.00;;;1.80;;
4812;SDS011;2420;51.202;8.698;2022-11-04T07:24:55;4.50;;;1.70;;
4812;SDS011;2420;51.202;8.698;2022-11-04T07:27:20;4.93;;;1.83;;
4812;SDS011;2420;51.202;8.698;2022-11-04T07:29:46;3.55;;;1.83;;
4812;SDS011;2420;51.202;8.698;2022-11-04T07:32:11;7.28;;;1.77;;
4812;SDS011;2420;51.202;8.698;2022-11-04T07:34:37;2.92;;;1.75;;
4812;SDS011;2420;51.202;8.698;2022-11-04T07:37:02;4.85;;;1.92;;
4812;SDS011;2420;51.202;8.698;2022-11-04T07:39:28;6.40;;;1.90;;
4812;SDS011;2420;51.202;8.698;2022-11-04T07:41:53;2.75;;;1.70;;
4812;SDS011;2420;51.202;8.698;2022-11-04T07:44:19;4.25;;;2.13;;
4812;SDS011;2420;51.202;8.698;2022-11-04T07:46:47;3.90;;;2.50;;
4812;SDS011;2420;51.202;8.698;2022-11-04T07:49:12;7.75;;;3.00;;
4812;SDS011;2420;51.202;8.698;2022-11-04T07:51:38;4.75;;;2.80;;
4812;SDS011;2420;51.202;8.698;2022-11-04T07:54:03;5.10;;;3.13;;
4812;SDS011;2420;51.202;8.698;2022-11-04T07:56:29;4.22;;;2.35;;
4812;SDS011;2420;51.202;8.698;2022-11-04T07:58:54;5.32;;;2.45;;
4812;SDS011;2420;51.202;8.698;2022-11-04T08:01:21;3.45;;;2.10;;
4812;SDS011;2420;51.202;8.698;2022-11-04T08:03:48;6.25;;;2.33;;
4812;SDS011;2420;51.202;8.698;2022-11-04T08:06:14;2.90;;;1.88;;
4812;SDS011;2420;51.202;8.698;2022-11-04T08:08:41;4.40;;;2.90;;
4812;SDS011;2420;51.202;8.698;2022-11-04T08:11:13;4.75;;;2.60;;
4812;SDS011;2420;51.202;8.698;2022-11-04T08:13:41;4.45;;;3.10;;
4812;SDS011;2420;51.202;8.698;2022-11-04T08:16:09;8.32;;;3.50;;
4812;SDS011;2420;51.202;8.698;2022-11-04T08:18:43;7.18;;;3.35;;
4812;SDS011;2420;51.202;8.698;2022-11-04T08:21:09;4.68;;;3.00;;
4812;SDS011;2420;51.202;8.698;2022-11-04T08:23:35;6.22;;;2.70;;
4812;SDS011;2420;51.202;8.698;2022-11-04T08:26:05;5.70;;;2.20;;
4812;SDS011;2420;51.202;8.698;2022-11-04T08:28:33;3.83;;;2.20;;
4812;SDS011;2420;51.202;8.698;2022-11-04T08:31:00;7.95;;;1.90;;
4812;SDS011;2420;51.202;8.698;2022-11-04T08:33:27;3.42;;;2.05;;
4812;SDS011;2420;51.202;8.698;2022-11-04T08:35:55;3.67;;;1.90;;
4812;SDS011;2420;51.202;8.698;2022-11-04T08:38:24;4.55;;;2.05;;
4812;SDS011;2420;51.202;8.698;2022-11-04T08:40:50;3.53;;;1.92;;
4812;SDS011;2420;51.202;8.698;2022-11-04T08:43:16;6.28;;;2.20;;
4812;SDS011;2420;51.202;8.698;2022-11-04T08:45:42;23.88;;;11.88;;
4812;SDS011;2420;51.202;8.698;2022-11-04T08:48:10;11.93;;;5.50;;
4812;SDS011;2420;51.202;8.698;2022-11-04T08:50:37;10.50;;;4.63;;
4812;SDS011;2420;51.202;8.698;2022-11-04T08:53:03;11.52;;;7.03;;
4812;SDS011;2420;51.202;8.698;2022-11-04T08:55:30;7.45;;;3.22;;
4812;SDS011;2420;51.202;8.698;2022-11-04T08:57:56;6.28;;;2.83;;
4812;SDS011;2420;51.202;8.698;2022-11-04T09:00:22;4.55;;;2.50;;
4812;SDS011;2420;51.202;8.698;2022-11-04T09:02:48;3.75;;;2.00;;
4812;SDS011;2420;51.202;8.698;2022-11-04T09:05:13;7.53;;;3.42;;
4812;SDS011;2420;51.202;8.698;2022-11-04T09:07:40;5.05;;;2.10;;
4812;SDS011;2420;51.202;8.698;2022-11-04T09:10:07;5.63;;;2.55;;
4812;SDS011;2420;51.202;8.698;2022-11-04T09:12:33;6.40;;;2.30;;
4812;SDS011;2420;51.202;8.698;2022-11-04T09:14:59;3.85;;;2.00;;
4812;SDS011;2420;51.202;8.698;2022-11-04T09:17:24;3.10;;;1.90;;
4812;SDS011;2420;51.202;8.698;2022-11-04T09:19:50;4.45;;;1.83;;
4812;SDS011;2420;51.202;8.698;2022-11-04T09:22:15;4.72;;;1.80;;
4812;SDS011;2420;51.202;8.698;2022-11-04T09:24:41;5.28;;;2.15;;
4812;SDS011;2420;51.202;8.698;2022-11-04T09:27:07;5.53;;;2.20;;
4812;SDS011;2420;51.202;8.698;2022-11-04T09:29:33;3.88;;;2.00;;
4812;SDS011;2420;51.202;8.698;2022-11-04T09:32:00;8.02;;;3.58;;
4812;SDS011;2420;51.202;8.698;2022-11-04T09:34:27;9.13;;;4.05;;
4812;SDS011;2420;51.202;8.698;2022-11-04T09:36:56;2.65;;;2.10;;
4812;SDS011;2420;51.202;8.698;2022-11-04T09:39:22;6.68;;;2.60;;
4812;SDS011;2420;51.202;8.698;2022-11-04T09:44:42;4.15;;;2.70;;
4812;SDS011;2420;51.202;8.698;2022-11-04T09:47:20;5.40;;;2.22;;
4812;SDS011;2420;51.202;8.698;2022-11-04T09:49:50;6.05;;;2.25;;
4812;SDS011;2420;51.202;8.698;2022-11-04T09:52:30;6.50;;;2.00;;
4812;SDS011;2420;51.202;8.698;2022-11-04T09:55:09;4.72;;;1.73;;
4812;SDS011;2420;51.202;8.698;2022-11-04T09:57:36;3.05;;;1.98;;
4812;SDS011;2420;51.202;8.698;2022-11-04T10:00:03;8.32;;;1.73;;
4812;SDS011;2420;51.202;8.698;2022-11-04T10:13:26;5.13;;;2.05;;
4812;SDS011;2420;51.202;8.698;2022-11-04T10:24:11;3.85;;;1.80;;
4812;SDS011;2420;51.202;8.698;2022-11-04T10:26:59;6.18;;;1.88;;
4812;SDS011;2420;51.202;8.698;2022-11-04T10:32:04;6.07;;;2.17;;
4812;SDS011;2420;51.202;8.698;2022-11-04T10:34:41;5.70;;;1.80;;
4812;SDS011;2420;51.202;8.698;2022-11-04T10:37:12;3.85;;;1.90;;
4812;SDS011;2420;51.202;8.698;2022-11-04T10:39:42;2.92;;;1.55;;
4812;SDS011;2420;51.202;8.698;2022-11-04T10:42:16;3.83;;;1.80;;
4812;SDS011;2420;51.202;8.698;2022-11-04T10:44:46;4.70;;;1.88;;
4812;SDS011;2420;51.202;8.698;2022-11-04T10:50:48;6.55;;;1.65;;
4812;SDS011;2420;51.202;8.698;2022-11-04T10:53:11;3.95;;;1.58;;
4812;SDS011;2420;51.202;8.698;2022-11-04T10:55:53;4.53;;;1.60;;
4812;SDS011;2420;51.202;8.698;2022-11-04T10:58:40;4.88;;;1.70;;
4812;SDS011;2420;51.202;8.698;2022-11-04T11:01:29;3.08;;;1.88;;
4812;SDS011;2420;51.202;8.698;2022-11-04T11:03:57;4.40;;;1.70;;
4812;SDS011;2420;51.202;8.698;2022-11-04T11:06:30;2.20;;;1.60;;
4812;SDS011;2420;51.202;8.698;2022-11-04T11:08:58;3.75;;;1.60;;
4812;SDS011;2420;51.202;8.698;2022-11-04T11:11:45;3.38;;;1.50;;
4812;SDS011;2420;51.202;8.698;2022-11-04T11:14:32;5.82;;;1.30;;
4812;SDS011;2420;51.202;8.698;2022-11-04T11:19:52;8.82;;;1.60;;
4812;SDS011;2420;51.202;8.698;2022-11-04T11:22:27;4.18;;;1.33;;
4812;SDS011;2420;51.202;8.698;2022-11-04T11:33:03;4.15;;;1.77;;
4812;SDS011;2420;51.202;8.698;2022-11-04T11:35:51;4.40;;;2.08;;
4812;SDS011;2420;51.202;8.698;2022-11-04T11:38:21;4.50;;;2.50;;
4812;SDS011;2420;51.202;8.698;2022-11-04T11:40:52;8.90;;;3.20;;
4812;SDS011;2420;51.202;8.698;2022-11-04T11:43:29;5.18;;;2.60;;
4812;SDS011;2420;51.202;8.698;2022-11-04T11:45:57;3.42;;;1.90;;
4812;SDS011;2420;51.202;8.698;2022-11-04T11:50:55;6.40;;;2.28;;
4812;SDS011;2420;51.202;8.698;2022-11-04T11:53:25;4.30;;;1.73;;
4812;SDS011;2420;51.202;8.698;2022-11-04T11:56:28;4.80;;;2.30;;
4812;SDS011;2420;51.202;8.698;2022-11-04T11:58:52;6.13;;;2.30;;
4812;SDS011;2420;51.202;8.698;2022-11-04T12:01:39;5.47;;;1.88;;
4812;SDS011;2420;51.202;8.698;2022-11-04T12:04:10;6.97;;;2.85;;
4812;SDS011;2420;51.202;8.698;2022-11-04T12:09:16;4.50;;;2.90;;
4812;SDS011;2420;51.202;8.698;2022-11-04T12:11:56;4.07;;;1.90;;
4812;SDS011;2420;51.202;8.698;2022-11-04T12:42:37;4.00;;;1.73;;
4812;SDS011;2420;51.202;8.698;2022-11-04T12:45:23;3.45;;;1.40;;
4812;SDS011;2420;51.202;8.698;2022-11-04T12:48:07;7.88;;;2.78;;
4812;SDS011;2420;51.202;8.698;2022-11-04T12:50:50;6.05;;;2.15;;
4812;SDS011;2420;51.202;8.698;2022-11-04T12:53:52;7.18;;;3.03;;
4812;SDS011;2420;51.202;8.698;2022-11-04T12:56:37;3.33;;;2.03;;
4812;SDS011;2420;51.202;8.698;2022-11-04T13:02:00;7.10;;;2.30;;
4812;SDS011;2420;51.202;8.698;2022-11-04T13:04:36;4.30;;;1.70;;
4812;SDS011;2420;51.202;8.698;2022-11-04T13:07:09;4.50;;;1.40;;
4812;SDS011;2420;51.202;8.698;2022-11-04T13:09:58;4.75;;;1.60;;
4812;SDS011;2420;51.202;8.698;2022-11-04T13:12:31;6.22;;;2.20;;
4812;SDS011;2420;51.202;8.698;2022-11-04T13:17:44;7.70;;;1.75;;
4812;SDS011;2420;51.202;8.698;2022-11-04T13:22:41;3.67;;;1.73;;
4812;SDS011;2420;51.202;8.698;2022-11-04T13:25:13;5.30;;;2.00;;
4812;SDS011;2420;51.202;8.698;2022-11-04T13:27:44;6.15;;;2.30;;
4812;SDS011;2420;51.202;8.698;2022-11-04T13:30:17;3.78;;;2.17;;
4812;SDS011;2420;51.202;8.698;2022-11-04T13:32:55;7.95;;;2.10;;
4812;SDS011;2420;51.202;8.698;2022-11-04T13:38:43;5.07;;;2.20;;
4812;SDS011;2420;51.202;8.698;2022-11-04T13:44:10;5.95;;;2.00;;
4812;SDS011;2420;51.202;8.698;2022-11-04T13:46:47;6.45;;;1.90;;
4812;SDS011;2420;51.202;8.698;2022-11-04T13:49:20;3.55;;;1.70;;
4812;SDS011;2420;51.202;8.698;2022-11-04T13:52:00;4.10;;;2.00;;
4812;SDS011;2420;51.202;8.698;2022-11-04T13:54:42;6.78;;;1.75;;
4812;SDS011;2420;51.202;8.698;2022-11-04T13:57:17;3.47;;;1.73;;
4812;SDS011;2420;51.202;8.698;2022-11-04T14:02:45;5.63;;;1.63;;
4812;SDS011;2420;51.202;8.698;2022-11-04T14:10:42;6.25;;;1.90;;
4812;SDS011;2420;51.202;8.698;2022-11-04T14:16:06;5.00;;;2.00;;
4812;SDS011;2420;51.202;8.698;2022-11-04T14:18:50;4.15;;;1.90;;
4812;SDS011;2420;51.202;8.698;2022-11-04T14:21:18;3.78;;;1.67;;
4812;SDS011;2420;51.202;8.698;2022-11-04T14:23:49;3.75;;;1.80;;
4812;SDS011;2420;51.202;8.698;2022-11-04T14:26:22;4.78;;;2.20;;
4812;SDS011;2420;51.202;8.698;2022-11-04T14:29:05;5.07;;;3.10;;
4812;SDS011;2420;51.202;8.698;2022-11-04T14:31:57;4.20;;;2.70;;
4812;SDS011;2420;51.202;8.698;2022-11-04T14:34:25;5.18;;;2.30;;
4812;SDS011;2420;51.202;8.698;2022-11-04T14:37:00;3.17;;;1.80;;
4812;SDS011;2420;51.202;8.698;2022-11-04T14:39:38;6.28;;;2.13;;
4812;SDS011;2420;51.202;8.698;2022-11-04T14:42:07;7.47;;;2.30;;
4812;SDS011;2420;51.202;8.698;2022-11-04T14:44:41;4.97;;;2.35;;
4812;SDS011;2420;51.202;8.698;2022-11-04T14:47:29;5.18;;;2.38;;
4812;SDS011;2420;51.202;8.698;2022-11-04T14:55:16;5.55;;;1.80;;
4812;SDS011;2420;51.202;8.698;2022-11-04T14:57:50;3.67;;;1.70;;
4812;SDS011;2420;51.202;8.698;2022-11-04T15:00:18;6.00;;;2.95;;
4812;SDS011;2420;51.202;8.698;2022-11-04T15:05:34;3.08;;;2.22;;
4812;SDS011;2420;51.202;8.698;2022-11-04T15:08:22;4.20;;;1.55;;
4812;SDS011;2420;51.202;8.698;2022-11-04T15:10:50;2.88;;;1.70;;
4812;SDS011;2420;51.202;8.698;2022-11-04T15:13:19;4.75;;;2.30;;
4812;SDS011;2420;51.202;8.698;2022-11-04T15:15:45;4.65;;;1.88;;
4812;SDS011;2420;51.202;8.698;2022-11-04T15:18:15;3.28;;;1.70;;
4812;SDS011;2420;51.202;8.698;2022-11-04T15:20:45;2.90;;;2.08;;
4812;SDS011;2420;51.202;8.698;2022-11-04T15:23:21;3.20;;;1.90;;
4812;SDS011;2420;51.202;8.698;2022-11-04T15:25:51;3.58;;;2.22;;
4812;SDS011;2420;51.202;8.698;2022-11-04T15:28:24;7.10;;;4.85;;
4812;SDS011;2420;51.202;8.698;2022-11-04T15:31:04;5.75;;;2.65;;
4812;SDS011;2420;51.202;8.698;2022-11-04T15:33:31;3.75;;;1.90;;
4812;SDS011;2420;51.202;8.698;2022-11-04T15:36:02;4.15;;;2.00;;
4812;SDS011;2420;51.202;8.698;2022-11-04T15:38:28;3.63;;;2.05;;
4812;SDS011;2420;51.202;8.698;2022-11-04T15:40:55;5.80;;;2.03;;
4812;SDS011;2420;51.202;8.698;2022-11-04T15:43:42;6.40;;;2.53;;
4812;SDS011;2420;51.202;8.698;2022-11-04T15:46:14;7.03;;;2.22;;
4812;SDS011;2420;51.202;8.698;2022-11-04T15:48:42;5.43;;;3.05;;
4812;SDS011;2420;51.202;8.698;2022-11-04T15:51:24;4.82;;;3.00;;
4812;SDS011;2420;51.202;8.698;2022-11-04T15:53:59;8.85;;;3.45;;
4812;SDS011;2420;51.202;8.698;2022-11-04T15:56:31;6.53;;;3.08;;
4812;SDS011;2420;51.202;8.698;2022-11-04T15:59:05;5.32;;;2.88;;
4812;SDS011;2420;51.202;8.698;2022-11-04T16:01:34;6.43;;;3.25;;
4812;SDS011;2420;51.202;8.698;2022-11-04T16:04:09;7.70;;;3.97;;
4812;SDS011;2420;51.202;8.698;2022-11-04T16:06:39;8.75;;;4.40;;
4812;SDS011;2420;51.202;8.698;2022-11-04T16:11:38;5.78;;;4.07;;
4812;SDS011;2420;51.202;8.698;2022-11-04T16:14:14;8.88;;;3.80;;
4812;SDS011;2420;51.202;8.698;2022-11-04T16:16:48;4.88;;;3.50;;
4812;SDS011;2420;51.202;8.698;2022-11-04T16:19:16;6.10;;;3.90;;
4812;SDS011;2420;51.202;8.698;2022-11-04T16:21:44;3.30;;;2.10;;
4812;SDS011;2420;51.202;8.698;2022-11-04T16:24:24;2.92;;;1.70;;
4812;SDS011;2420;51.202;8.698;2022-11-04T16:26:53;4.00;;;2.10;;
4812;SDS011;2420;51.202;8.698;2022-11-04T16:29:22;2.97;;;1.80;;
4812;SDS011;2420;51.202;8.698;2022-11-04T16:32:11;4.95;;;2.05;;
4812;SDS011;2420;51.202;8.698;2022-11-04T16:34:41;5.72;;;2.10;;
4812;SDS011;2420;51.202;8.698;2022-11-04T16:37:07;5.32;;;2.45;;
4812;SDS011;2420;51.202;8.698;2022-11-04T16:39:32;4.50;;;2.17;;
4812;SDS011;2420;51.202;8.698;2022-11-04T16:41:58;4.72;;;2.80;;
4812;SDS011;2420;51.202;8.698;2022-11-04T16:44:24;4.82;;;3.33;;
4812;SDS011;2420;51.202;8.698;2022-11-04T16:46:50;9.25;;;4.93;;
4812;SDS011;2420;51.202;8.698;2022-11-04T16:49:17;8.98;;;5.93;;
4812;SDS011;2420;51.202;8.698;2022-11-04T16:51:46;10.05;;;5.28;;
4812;SDS011;2420;51.202;8.698;2022-11-04T16:54:15;12.63;;;5.55;;
4812;SDS011;2420;51.202;8.698;2022-11-04T16:56:40;11.20;;;7.10;;
4812;SDS011;2420;51.202;8.698;2022-11-04T16:59:07;9.57;;;5.85;;
4812;SDS011;2420;51.202;8.698;2022-11-04T17:01:35;9.95;;;4.82;;
4812;SDS011;2420;51.202;8.698;2022-11-04T17:04:03;9.98;;;4.90;;
4812;SDS011;2420;51.202;8.698;2022-11-04T17:06:32;13.73;;;6.65;;
4812;SDS011;2420;51.202;8.698;2022-11-04T17:09:02;13.40;;;6.43;;
4812;SDS011;2420;51.202;8.698;2022-11-04T17:11:28;10.05;;;5.35;;
4812;SDS011;2420;51.202;8.698;2022-11-04T17:13:54;10.18;;;5.75;;
4812;SDS011;2420;51.202;8.698;2022-11-04T17:16:19;11.40;;;6.07;;
4812;SDS011;2420;51.202;8.698;2022-11-04T17:18:45;10.77;;;5.78;;
4812;SDS011;2420;51.202;8.698;2022-11-04T17:21:12;9.73;;;5.70;;
4812;SDS011;2420;51.202;8.698;2022-11-04T17:23:40;10.20;;;5.82;;
4812;SDS011;2420;51.202;8.698;2022-11-04T17:26:06;14.63;;;8.93;;
4812;SDS011;2420;51.202;8.698;2022-11-04T17:28:33;11.93;;;7.70;;
4812;SDS011;2420;51.202;8.698;2022-11-04T17:31:00;10.30;;;7.25;;
4812;SDS011;2420;51.202;8.698;2022-11-04T17:33:26;10.18;;;5.13;;
4812;SDS011;2420;51.202;8.698;2022-11-04T17:35:51;6.93;;;4.53;;
4812;SDS011;2420;51.202;8.698;2022-11-04T17:38:17;5.63;;;3.35;;
4812;SDS011;2420;51.202;8.698;2022-11-04T17:40:44;7.00;;;4.22;;
4812;SDS011;2420;51.202;8.698;2022-11-04T17:43:28;7.55;;;4.28;;
4812;SDS011;2420;51.202;8.698;2022-11-04T17:49:34;11.77;;;5.18;;
4812;SDS011;2420;51.202;8.698;2022-11-04T17:52:02;9.82;;;5.85;;
4812;SDS011;2420;51.202;8.698;2022-11-04T17:54:28;10.90;;;6.22;;
4812;SDS011;2420;51.202;8.698;2022-11-04T17:56:55;7.90;;;5.43;;
4812;SDS011;2420;51.202;8.698;2022-11-04T17:59:21;8.73;;;5.05;;
4812;SDS011;2420;51.202;8.698;2022-11-04T18:01:47;7.85;;;5.10;;